createdAt,value
2022-09-15T00:03:47.930Z,8.52
2022-09-15T00:08:50.121Z,8.00
2022-09-15T00:13:53.539Z,7.25
2022-09-15T00:18:55.968Z,5.75
2022-09-15T00:23:59.567Z,5.43
2022-09-15T00:29:02.749Z,6.53
2022-09-15T00:34:05.161Z,5.70
2022-09-15T00:39:07.188Z,6.20
2022-09-15T00:44:24.316Z,6.00
2022-09-15T00:49:31.375Z,6.63
2022-09-15T00:54:36.491Z,9.30
2022-09-15T00:59:41.570Z,4.32
2022-09-15T01:04:43.802Z,5.32
2022-09-15T01:09:58.974Z,6.90
2022-09-15T01:20:25.910Z,6.75
2022-09-15T01:25:48.817Z,4.97
2022-09-15T01:31:33.131Z,4.78
2022-09-15T01:36:35.114Z,5.05
2022-09-15T01:41:51.036Z,4.38
2022-09-15T01:46:58.666Z,4.43
2022-09-15T01:52:01.053Z,4.82
2022-09-15T01:57:03.955Z,3.05
2022-09-15T02:02:12.218Z,4.03
2022-09-15T02:07:45.318Z,4.07
2022-09-15T02:13:17.330Z,4.28
2022-09-15T02:18:35.027Z,3.70
2022-09-15T02:23:43.938Z,4.05
2022-09-15T02:28:49.398Z,3.80
2022-09-15T02:34:00.370Z,3.15
2022-09-15T02:39:09.285Z,3.28
2022-09-15T02:44:11.351Z,3.35
2022-09-15T02:49:14.306Z,3.35
2022-09-15T02:54:16.411Z,2.83
2022-09-15T02:59:18.379Z,3.58
2022-09-15T03:04:20.320Z,3.03
2022-09-15T03:09:22.252Z,3.70
2022-09-15T03:14:24.487Z,2.88
2022-09-15T03:19:26.975Z,3.05
2022-09-15T03:24:28.938Z,2.55
2022-09-15T03:29:31.248Z,3.08
2022-09-15T03:34:33.297Z,3.60
2022-09-15T03:39:35.408Z,2.13
2022-09-15T03:44:37.374Z,4.03
2022-09-15T03:49:39.326Z,2.38
2022-09-15T03:54:41.652Z,2.33
2022-09-15T03:59:43.709Z,3.63
2022-09-15T04:04:45.759Z,3.20
2022-09-15T04:09:47.773Z,3.15
2022-09-15T04:14:49.928Z,2.40
2022-09-15T04:19:51.917Z,3.03
2022-09-15T04:24:54.059Z,3.30
2022-09-15T04:29:56.072Z,2.10
2022-09-15T04:34:58.126Z,1.90
2022-09-15T04:40:01.485Z,2.17
2022-09-15T04:45:03.828Z,2.85
2022-09-15T04:50:06.269Z,2.28
2022-09-15T04:55:08.670Z,1.80
2022-09-15T05:00:11.518Z,3.78
2022-09-15T05:05:13.669Z,5.43
2022-09-15T05:10:15.766Z,2.30
2022-09-15T05:15:17.749Z,3.33
2022-09-15T05:20:19.791Z,2.90
2022-09-15T05:25:21.763Z,1.80
2022-09-15T05:30:37.705Z,2.67
2022-09-15T05:35:59.594Z,2.63
2022-09-15T05:41:06.003Z,2.05
2022-09-15T05:46:09.808Z,4.43
2022-09-15T05:51:12.308Z,3.67
2022-09-15T05:56:16.320Z,2.78
2022-09-15T06:01:24.606Z,4.95
2022-09-15T06:06:27.209Z,4.22
2022-09-15T06:11:35.220Z,4.88
2022-09-15T06:16:37.207Z,3.63
2022-09-15T06:21:39.264Z,4.97
2022-09-15T06:26:41.222Z,4.97
2022-09-15T06:31:43.298Z,10.98
2022-09-15T06:36:45.543Z,30.30
2022-09-15T06:42:01.842Z,17.40
2022-09-15T06:47:04.569Z,27.55
2022-09-15T06:52:07.007Z,13.70
2022-09-15T06:57:08.906Z,16.60
2022-09-15T07:02:11.105Z,18.40
2022-09-15T07:07:13.129Z,23.83
2022-09-15T07:12:15.320Z,16.63
2022-09-15T07:17:17.370Z,15.00
2022-09-15T07:22:19.359Z,12.45
2022-09-15T07:27:25.102Z,14.82
2022-09-15T07:32:27.036Z,13.35
2022-09-15T07:37:29.026Z,10.75
2022-09-15T07:42:35.434Z,11.85
2022-09-15T07:47:38.411Z,9.38
2022-09-15T07:52:40.666Z,10.63
2022-09-15T07:57:42.681Z,7.75
2022-09-15T08:02:44.820Z,10.48
2022-09-15T08:07:46.850Z,6.95
2022-09-15T08:12:49.225Z,6.90
2022-09-15T08:17:51.619Z,10.00
2022-09-15T08:22:53.863Z,7.75
2022-09-15T08:27:56.629Z,10.13
2022-09-15T08:32:58.501Z,6.50
2022-09-15T08:38:00.504Z,5.32
2022-09-15T08:43:12.083Z,6.55
2022-09-15T08:48:16.960Z,9.25
2022-09-15T08:53:34.020Z,8.80
2022-09-15T08:58:37.891Z,10.90
2022-09-15T09:03:53.237Z,7.00
2022-09-15T09:09:04.074Z,6.57
2022-09-15T09:14:36.998Z,6.97
2022-09-15T09:19:52.930Z,7.80
2022-09-15T09:24:58.727Z,7.93
2022-09-15T09:30:12.756Z,6.40
2022-09-15T09:35:31.812Z,6.78
2022-09-15T09:40:34.106Z,5.75
2022-09-15T09:45:36.343Z,4.35
2022-09-15T09:50:43.755Z,6.80
2022-09-15T09:55:46.168Z,6.68
2022-09-15T10:00:48.652Z,6.95
2022-09-15T10:06:13.163Z,5.60
2022-09-15T10:11:15.453Z,8.13
2022-09-15T10:16:19.054Z,5.38
2022-09-15T10:21:24.980Z,6.25
2022-09-15T10:26:33.815Z,5.85
2022-09-15T10:31:35.982Z,4.47
2022-09-15T10:36:38.156Z,5.68
2022-09-15T10:41:59.874Z,5.57
2022-09-15T10:47:44.988Z,7.20
2022-09-15T10:53:25.137Z,9.50
2022-09-15T10:58:51.648Z,6.50
2022-09-15T11:04:25.195Z,5.97
2022-09-15T11:09:30.075Z,5.40
2022-09-15T11:14:56.636Z,5.95
2022-09-15T11:20:17.504Z,8.50
2022-09-15T11:25:23.172Z,7.63
2022-09-15T11:30:30.279Z,6.93
2022-09-15T11:35:46.815Z,6.47
2022-09-15T11:41:13.311Z,9.98
2022-09-15T11:46:25.928Z,5.03
2022-09-15T11:51:33.823Z,11.88
2022-09-15T11:56:44.079Z,7.50
2022-09-15T12:02:34.357Z,8.07
2022-09-15T12:07:46.256Z,9.68
2022-09-15T12:12:51.678Z,7.72
2022-09-15T12:18:37.335Z,9.55
2022-09-15T12:23:42.366Z,7.80
2022-09-15T12:28:47.444Z,6.65
2022-09-15T12:34:06.672Z,9.07
2022-09-15T12:39:29.088Z,7.18
2022-09-15T12:44:46.156Z,8.80
2022-09-15T12:49:50.651Z,8.68
2022-09-15T12:55:03.737Z,8.48
2022-09-15T13:00:21.008Z,8.02
2022-09-15T13:05:41.571Z,8.43
2022-09-15T13:11:29.765Z,15.20
2022-09-15T13:16:34.319Z,5.45
2022-09-15T13:21:40.327Z,6.70
2022-09-15T13:26:44.885Z,7.55
2022-09-15T13:31:53.720Z,7.05
2022-09-15T13:42:23.407Z,8.32
2022-09-15T13:47:30.582Z,6.20
2022-09-15T13:53:04.057Z,6.18
2022-09-15T14:03:53.923Z,7.72
2022-09-15T14:09:04.890Z,5.15
2022-09-15T14:14:19.581Z,5.50
2022-09-15T14:19:37.629Z,5.75
2022-09-15T14:24:40.660Z,7.18
2022-09-15T14:39:58.086Z,6.70
2022-09-15T14:50:37.971Z,9.50
2022-09-15T14:56:04.349Z,5.90
2022-09-15T15:01:27.629Z,6.47
2022-09-15T15:06:31.821Z,6.88
2022-09-15T15:11:37.015Z,8.20
2022-09-15T15:16:57.062Z,7.53
2022-09-15T15:22:14.023Z,9.13
2022-09-15T15:27:34.435Z,5.78
2022-09-15T15:32:36.668Z,7.20
2022-09-15T15:37:39.070Z,8.38
2022-09-15T15:42:59.350Z,7.55
2022-09-15T15:53:05.104Z,8.90
2022-09-15T15:58:08.884Z,7.22
2022-09-15T16:03:11.855Z,5.13
2022-09-15T16:08:38.297Z,7.72
2022-09-15T16:13:41.778Z,5.25
2022-09-15T16:18:43.979Z,8.70
2022-09-15T16:23:46.659Z,4.78
2022-09-15T16:28:48.998Z,4.57
2022-09-15T16:33:51.007Z,5.40
2022-09-15T16:38:53.256Z,6.07
2022-09-15T16:43:58.337Z,8.35
2022-09-15T16:49:00.268Z,8.05
2022-09-15T16:54:02.292Z,8.55
2022-09-15T16:59:04.279Z,6.22
2022-09-15T17:04:17.013Z,9.88
2022-09-15T17:09:18.928Z,12.02
2022-09-15T17:14:20.855Z,9.48
2022-09-15T17:19:22.681Z,9.73
2022-09-15T17:24:24.702Z,6.70
2022-09-15T17:29:27.023Z,8.00
2022-09-15T17:34:28.993Z,6.63
2022-09-15T17:39:31.325Z,7.88
2022-09-15T17:44:35.659Z,7.35
2022-09-15T17:49:39.643Z,5.53
2022-09-15T17:54:41.592Z,6.60
2022-09-15T17:59:43.490Z,6.53
2022-09-15T18:04:46.080Z,7.35
2022-09-15T18:09:48.303Z,7.00
2022-09-15T18:14:50.219Z,5.38
2022-09-15T18:19:52.599Z,6.35
2022-09-15T18:24:54.504Z,5.43
2022-09-15T18:29:56.392Z,6.68
2022-09-15T18:34:58.357Z,4.20
2022-09-15T18:40:00.323Z,5.72
2022-09-15T18:45:02.439Z,5.57
2022-09-15T18:50:06.636Z,5.43
2022-09-15T18:55:12.779Z,4.55
2022-09-15T19:00:24.412Z,4.05
2022-09-15T19:05:27.537Z,4.07
2022-09-15T19:10:29.911Z,4.65
2022-09-15T19:15:34.052Z,5.97
2022-09-15T19:20:36.119Z,4.63
2022-09-15T19:25:40.465Z,5.95
2022-09-15T19:30:42.917Z,4.57
2022-09-15T19:35:44.978Z,4.38
2022-09-15T19:40:47.189Z,5.20
2022-09-15T19:45:49.392Z,4.68
2022-09-15T19:50:51.580Z,3.78
2022-09-15T19:55:53.596Z,4.40
2022-09-15T20:00:56.741Z,4.50
2022-09-15T20:05:59.026Z,5.60
2022-09-15T20:11:06.114Z,5.75
2022-09-15T20:16:08.421Z,8.50
2022-09-15T20:21:21.745Z,4.05
2022-09-15T20:26:29.449Z,5.30
2022-09-15T20:31:33.221Z,3.50
2022-09-15T20:36:36.922Z,4.22
2022-09-15T20:41:40.246Z,4.95
2022-09-15T20:46:43.074Z,4.70
2022-09-15T20:51:45.402Z,4.82
2022-09-15T20:56:47.339Z,5.68
2022-09-15T21:01:49.307Z,5.75
2022-09-15T21:06:51.421Z,5.43
2022-09-15T21:11:53.731Z,3.95
2022-09-15T21:16:55.875Z,5.00
2022-09-15T21:21:58.679Z,3.17
2022-09-15T21:27:19.098Z,5.70
2022-09-15T21:32:21.237Z,6.10
2022-09-15T21:37:26.376Z,4.13
2022-09-15T21:42:28.724Z,2.70
2022-09-15T21:47:32.154Z,4.35
2022-09-15T21:52:34.223Z,4.53
2022-09-15T21:57:36.747Z,3.13
2022-09-15T22:02:38.749Z,4.93
2022-09-15T22:07:40.752Z,4.10
2022-09-15T22:12:42.812Z,3.47
2022-09-15T22:17:44.726Z,3.72
2022-09-15T22:22:46.826Z,4.70
2022-09-15T22:27:48.836Z,3.40
2022-09-15T22:32:50.881Z,5.63
2022-09-15T22:37:52.891Z,3.70
2022-09-15T22:42:55.262Z,3.13
2022-09-15T22:47:57.239Z,2.65
2022-09-15T22:52:59.513Z,3.05
2022-09-15T22:58:01.581Z,3.47
2022-09-15T23:03:03.698Z,4.07
2022-09-15T23:08:05.876Z,3.85
2022-09-15T23:13:08.096Z,3.47
2022-09-15T23:18:10.409Z,2.58
2022-09-15T23:23:12.352Z,3.03
2022-09-15T23:28:14.291Z,3.85
2022-09-15T23:33:16.421Z,3.65
2022-09-15T23:38:20.371Z,3.15
2022-09-15T23:43:22.898Z,2.72
2022-09-15T23:48:24.855Z,2.70
2022-09-15T23:53:27.345Z,3.45
2022-09-15T23:58:29.340Z,3.35
